Braidwood, Australia
Current Conditions -  °F | °C
As of 7:00 AM on Wednesday 22 Oct 2014 (Local Time) from YSCB Reporting Station
Overcast Overcast  
Wind Chill: 50°   Ceiling: 1700
Heat Index: 50°   Visibility: 6mi
Dew Point: 45°   Wind: 8mph
Humidity: 82%   Direction: 190°S
Pressure: 30.3"   Gusts: NA
Location:  35.44°S, 149.8°E
Report Text: YSCB 212000Z 19007KT 9999 OVC017 10/07 Q1026
Loading
Personal Weather Stations






























Interactive Weather Map
Tropical Storm Tracking
New forecast layout! Learn more

10-Day Weather Forecast

Advertisements
Track Severe Weather on mobile